Thrift, Georgia
Current Conditions -  °F | °C
As of 1:15 AM on Monday 24 Nov 2014 (Local Time) from KJYL Reporting Station
Overcast Overcast  
Wind Chill: 66°   Ceiling: 2400
Heat Index: 66°   Visibility: 10mi
Dew Point: 65°   Wind: 5mph
Humidity: 97%   Direction: 220°SW
Pressure: 29.82"   Gusts: NA
Location:  32.7727°N, 81.9794°W
Report Text: KJYL 240615Z AUTO 22004KT 10SM SCT006 OVC024 19/19 A2982 RMK AO2 T01910186
Loading
Personal Weather Stations






























Interactive Weather Map New forecast layout! Learn more

10-Day Weather Forecast

Advertisements
Track Severe Weather on mobile